Tebbetts, Missouri
Current Conditions -  °F | °C
As of 6:53 PM on Tuesday 21 Oct 2014 (Local Time) from KJEF Reporting Station
Clear Clear  
Wind Chill: 66°   Ceiling: Unl
Heat Index: 66°   Visibility: 10mi
Dew Point: 44°   Wind: 7mph
Humidity: 45%   Direction: 50°NE
Pressure: 30.1"   Gusts: NA
Location:  38.62°N, 91.96°W
Report Text: KJEF 212353Z 05006KT 10SM CLR 19/07 A3010 RMK AO2 SLP184 T01890067 10233 20189 53007
Loading
Personal Weather Stations






























Interactive Weather Map
Tropical Storm Tracking
New forecast layout! Learn more

10-Day Weather Forecast

Advertisements
Track Severe Weather on mobile